Time;durP1;ratioP1;P1;durP2;ratioP2;P2;SDS_P1;SDS_P2;PMS_P1;PMS_P2;Temp;Humidity;BMP_temperature;BMP_pressure;BME280_temperature;BME280_humidity;BME280_pressure;Samples;Min_cycle;Max_cycle;Signal;HPM_P1;HPM_P2
2021/08/11 00:00:10;;;;;;;4.00;3.40;;;;;;;;;;5053866;28;20407;-73
2021/08/11 00:02:36;;;;;;;6.53;3.53;;;;;;;;;;5053040;28;20426;-76
2021/08/11 00:05:03;;;;;;;3.73;3.43;;;;;;;;;;5054521;28;20423;-76
2021/08/11 00:10:32;;;;;;;4.90;3.37;;;;;;;;;;5054188;28;20511;-76
2021/08/11 00:12:58;;;;;;;4.07;3.17;;;;;;;;;;5054089;28;20435;-75
2021/08/11 00:15:24;;;;;;;4.90;3.87;;;;;;;;;;5053750;28;20459;-75
2021/08/11 00:17:50;;;;;;;5.80;3.87;;;;;;;;;;5054023;28;20403;-76
2021/08/11 00:20:16;;;;;;;6.33;3.63;;;;;;;;;;5053948;28;20422;-75
2021/08/11 00:25:46;;;;;;;5.07;4.13;;;;;;;;;;5053723;28;20493;-75
2021/08/11 00:28:12;;;;;;;5.53;3.40;;;;;;;;;;5054138;28;20427;-76
2021/08/11 00:30:38;;;;;;;4.27;3.87;;;;;;;;;;5053933;28;20980;-75
2021/08/11 00:33:04;;;;;;;4.20;3.40;;;;;;;;;;5053193;28;20426;-73
2021/08/11 00:35:30;;;;;;;8.67;3.50;;;;;;;;;;5053727;28;20490;-76
2021/08/11 00:37:56;;;;;;;3.47;3.17;;;;;;;;;;5053692;28;20522;-76
2021/08/11 00:40:23;;;;;;;10.00;4.07;;;;;;;;;;5054231;28;20905;-76
2021/08/11 00:42:50;;;;;;;4.47;4.03;;;;;;;;;;5052889;28;20430;-76
2021/08/11 00:45:16;;;;;;;3.40;3.10;;;;;;;;;;5053811;28;20415;-75
2021/08/11 00:47:42;;;;;;;5.33;3.50;;;;;;;;;;5053017;28;20419;-76
2021/08/11 00:50:09;;;;;;;4.60;3.60;;;;;;;;;;5053207;28;20417;-75
2021/08/11 00:55:40;;;;;;;4.80;3.47;;;;;;;;;;5053396;28;20902;-76
2021/08/11 00:58:09;;;;;;;4.03;3.03;;;;;;;;;;5053887;28;20422;-76
2021/08/11 01:00:39;;;;;;;8.73;4.17;;;;;;;;;;5053587;28;20430;-73
2021/08/11 01:03:09;;;;;;;6.40;4.00;;;;;;;;;;5052779;28;20419;-75
2021/08/11 01:05:35;;;;;;;4.27;3.83;;;;;;;;;;5051454;28;20576;-76
2021/08/11 01:11:05;;;;;;;3.70;3.40;;;;;;;;;;5052687;28;20489;-76
2021/08/11 01:13:31;;;;;;;7.00;3.70;;;;;;;;;;5053370;28;20471;-76
2021/08/11 01:15:57;;;;;;;8.30;4.43;;;;;;;;;;5053124;28;20481;-76
2021/08/11 01:18:23;;;;;;;6.20;4.30;;;;;;;;;;5053277;28;20882;-77
2021/08/11 01:26:51;;;;;;;6.70;4.40;;;;;;;;;;5052836;28;20470;-76
2021/08/11 01:29:20;;;;;;;5.10;4.60;;;;;;;;;;5052719;28;20886;-77
2021/08/11 01:32:00;;;;;;;3.90;3.50;;;;;;;;;;5053183;28;20473;-76
2021/08/11 01:34:32;;;;;;;4.73;4.33;;;;;;;;;;5052420;28;20424;-77
2021/08/11 01:37:04;;;;;;;5.93;3.40;;;;;;;;;;5052579;28;20438;-75
2021/08/11 01:39:33;;;;;;;4.47;4.03;;;;;;;;;;5050967;28;20415;-74
2021/08/11 01:42:02;;;;;;;7.70;4.73;;;;;;;;;;5052815;28;20857;-75
2021/08/11 01:44:37;;;;;;;5.20;4.43;;;;;;;;;;5052415;28;20422;-76
2021/08/11 01:47:04;;;;;;;4.33;3.80;;;;;;;;;;5052659;28;20470;-75
2021/08/11 01:49:31;;;;;;;5.23;3.80;;;;;;;;;;5052774;28;20419;-76
2021/08/11 01:51:57;;;;;;;4.67;4.00;;;;;;;;;;5052474;28;20427;-75
2021/08/11 01:54:25;;;;;;;4.33;3.93;;;;;;;;;;5050335;28;20851;-76
2021/08/11 01:56:51;;;;;;;4.97;4.40;;;;;;;;;;5050635;28;20529;-74
2021/08/11 01:59:17;;;;;;;5.20;3.70;;;;;;;;;;5052194;28;20958;-76
2021/08/11 02:01:43;;;;;;;4.87;4.30;;;;;;;;;;5052291;28;20488;-76
2021/08/11 02:04:09;;;;;;;4.83;4.33;;;;;;;;;;5052384;28;20419;-75
2021/08/11 02:06:36;;;;;;;5.70;4.10;;;;;;;;;;5052264;28;20479;-76
2021/08/11 02:09:03;;;;;;;5.83;5.20;;;;;;;;;;5050854;28;20423;-75
2021/08/11 02:11:29;;;;;;;7.80;4.63;;;;;;;;;;5050865;28;20438;-76
2021/08/11 02:13:55;;;;;;;6.97;4.77;;;;;;;;;;5052371;28;20529;-73
2021/08/11 02:16:21;;;;;;;4.50;4.10;;;;;;;;;;5052458;28;20422;-77
2021/08/11 02:18:47;;;;;;;5.37;4.83;;;;;;;;;;5052686;28;20403;-76
2021/08/11 02:21:13;;;;;;;5.00;4.40;;;;;;;;;;5052951;28;20506;-77
2021/08/11 02:26:49;;;;;;;5.40;4.90;;;;;;;;;;5051896;28;20474;-74
2021/08/11 02:29:24;;;;;;;6.23;4.60;;;;;;;;;;5051351;28;20560;-76
2021/08/11 02:31:50;;;;;;;5.63;4.80;;;;;;;;;;5052156;28;20434;-75
2021/08/11 02:34:27;;;;;;;7.73;5.07;;;;;;;;;;5052514;28;20427;-76
2021/08/11 02:36:57;;;;;;;4.93;4.43;;;;;;;;;;5052094;28;20434;-77
2021/08/11 02:39:32;;;;;;;5.83;4.10;;;;;;;;;;5051386;28;20509;-76
2021/08/11 02:42:05;;;;;;;5.87;4.80;;;;;;;;;;5051725;28;20450;-75
2021/08/11 02:44:33;;;;;;;9.47;5.03;;;;;;;;;;5051357;28;20414;-76
2021/08/11 02:46:59;;;;;;;6.70;5.80;;;;;;;;;;5051421;28;20524;-76
2021/08/11 02:49:27;;;;;;;5.93;4.50;;;;;;;;;;5051616;28;20414;-76
2021/08/11 02:51:54;;;;;;;5.93;5.37;;;;;;;;;;5050641;28;20430;-77
2021/08/11 02:54:21;;;;;;;5.43;4.90;;;;;;;;;;5051274;28;20423;-77
2021/08/11 02:56:48;;;;;;;4.60;4.10;;;;;;;;;;5051844;28;20477;-75
2021/08/11 02:59:15;;;;;;;6.30;5.60;;;;;;;;;;5051716;28;20415;-76
2021/08/11 03:01:41;;;;;;;6.87;4.37;;;;;;;;;;5050109;28;20921;-76
2021/08/11 03:04:08;;;;;;;6.33;4.90;;;;;;;;;;5051788;28;20481;-76
2021/08/11 03:06:34;;;;;;;13.00;5.10;;;;;;;;;;5052813;28;20471;-76
2021/08/11 03:12:07;;;;;;;16.13;5.33;;;;;;;;;;5055502;28;20494;-76
2021/08/11 03:14:33;;;;;;;5.67;5.17;;;;;;;;;;5054122;28;20441;-77
2021/08/11 03:17:00;;;;;;;5.63;4.80;;;;;;;;;;5055420;28;20419;-76
2021/08/11 03:19:26;;;;;;;5.33;4.83;;;;;;;;;;5054484;28;20439;-76
2021/08/11 03:21:52;;;;;;;8.43;5.13;;;;;;;;;;5056289;28;20882;-76
2021/08/11 03:27:22;;;;;;;5.90;5.27;;;;;;;;;;5055270;28;20473;-76
2021/08/11 03:29:48;;;;;;;5.53;5.00;;;;;;;;;;5055294;28;20422;-75
2021/08/11 03:32:14;;;;;;;9.50;4.73;;;;;;;;;;5056397;28;20816;-77
2021/08/11 03:34:40;;;;;;;5.40;4.33;;;;;;;;;;5055670;28;20466;-77
2021/08/11 03:37:06;;;;;;;6.47;3.63;;;;;;;;;;5055765;28;20450;-77
2021/08/11 03:42:35;;;;;;;4.87;4.30;;;;;;;;;;5054948;28;20425;-76
2021/08/11 03:45:01;;;;;;;5.60;5.10;;;;;;;;;;5055327;28;20431;-76
2021/08/11 03:47:27;;;;;;;5.50;5.00;;;;;;;;;;5054809;28;20502;-76
2021/08/11 03:49:53;;;;;;;4.43;4.03;;;;;;;;;;5054691;28;20418;-76
2021/08/11 03:52:19;;;;;;;4.93;4.10;;;;;;;;;;5054907;28;20423;-77
2021/08/11 03:54:45;;;;;;;7.37;4.80;;;;;;;;;;5054671;28;20525;-74
2021/08/11 03:57:11;;;;;;;4.83;3.90;;;;;;;;;;5054768;28;20411;-77
2021/08/11 03:59:37;;;;;;;5.07;4.30;;;;;;;;;;5055112;28;20870;-77
2021/08/11 04:02:04;;;;;;;7.20;4.13;;;;;;;;;;5054631;28;20496;-75
2021/08/11 04:04:31;;;;;;;5.53;5.00;;;;;;;;;;5054550;28;20496;-76
2021/08/11 04:06:57;;;;;;;6.97;5.03;;;;;;;;;;5054238;28;20470;-76
2021/08/11 04:12:26;;;;;;;6.47;4.03;;;;;;;;;;5054415;28;20417;-76
2021/08/11 04:14:52;;;;;;;4.43;4.03;;;;;;;;;;5054449;28;20890;-75
2021/08/11 04:17:18;;;;;;;8.10;5.03;;;;;;;;;;5054592;28;20430;-75
2021/08/11 04:19:44;;;;;;;7.00;6.30;;;;;;;;;;5053931;28;20764;-72
2021/08/11 04:22:10;;;;;;;7.50;4.67;;;;;;;;;;5054182;28;20453;-76
2021/08/11 04:27:40;;;;;;;4.50;4.10;;;;;;;;;;5053983;28;20477;-76
2021/08/11 04:30:06;;;;;;;6.30;4.80;;;;;;;;;;5054453;28;20446;-76
2021/08/11 04:32:34;;;;;;;12.07;9.47;;;;;;;;;;5052927;28;20450;-77
2021/08/11 04:35:00;;;;;;;5.60;4.60;;;;;;;;;;5054083;28;20816;-75
2021/08/11 04:37:26;;;;;;;9.40;4.60;;;;;;;;;;5053959;28;20526;-76
2021/08/11 04:42:56;;;;;;;4.97;4.47;;;;;;;;;;5054012;28;20758;-76
2021/08/11 04:45:22;;;;;;;9.13;5.07;;;;;;;;;;5053097;28;20411;-76
2021/08/11 04:47:48;;;;;;;10.60;6.00;;;;;;;;;;5053778;28;20430;-77
2021/08/11 04:50:14;;;;;;;4.90;4.43;;;;;;;;;;5054141;28;20415;-76
2021/08/11 04:52:40;;;;;;;7.07;5.60;;;;;;;;;;5053593;28;20411;-77
2021/08/11 04:58:10;;;;;;;6.03;5.30;;;;;;;;;;5053475;28;20414;-74
2021/08/11 05:00:36;;;;;;;7.33;5.10;;;;;;;;;;5053186;28;20419;-76
2021/08/11 05:03:02;;;;;;;7.10;6.13;;;;;;;;;;5053427;28;20415;-75
2021/08/11 05:05:28;;;;;;;7.30;4.90;;;;;;;;;;5052243;28;20419;-76
2021/08/11 05:07:54;;;;;;;8.40;5.30;;;;;;;;;;5051951;28;20438;-76
2021/08/11 05:13:23;;;;;;;5.70;4.10;;;;;;;;;;5053166;28;20771;-76
2021/08/11 05:15:49;;;;;;;6.33;5.70;;;;;;;;;;5053421;28;20427;-75
2021/08/11 05:18:15;;;;;;;7.30;6.60;;;;;;;;;;5053227;28;20421;-77
2021/08/11 05:20:41;;;;;;;5.43;4.93;;;;;;;;;;5053476;28;20437;-76
2021/08/11 05:23:07;;;;;;;6.63;4.90;;;;;;;;;;5052570;28;20502;-76
2021/08/11 05:28:37;;;;;;;6.97;5.17;;;;;;;;;;5052657;28;20426;-75
2021/08/11 05:31:03;;;;;;;8.57;4.70;;;;;;;;;;5053291;28;20423;-77
2021/08/11 05:33:29;;;;;;;5.03;4.53;;;;;;;;;;5053096;28;20928;-75
2021/08/11 05:35:55;;;;;;;6.70;5.33;;;;;;;;;;5052902;28;20470;-74
2021/08/11 05:38:22;;;;;;;7.37;4.27;;;;;;;;;;5053284;28;20975;-75
2021/08/11 05:43:51;;;;;;;7.17;5.60;;;;;;;;;;5050675;28;20413;-75
2021/08/11 05:46:17;;;;;;;6.93;4.63;;;;;;;;;;5051268;28;20545;-74
2021/08/11 05:48:43;;;;;;;8.93;4.23;;;;;;;;;;5052436;28;20783;-75
2021/08/11 05:51:10;;;;;;;5.73;4.63;;;;;;;;;;5051438;28;20744;-72
2021/08/11 05:53:36;;;;;;;5.63;5.00;;;;;;;;;;5052448;28;20438;-77
2021/08/11 05:56:02;;;;;;;8.40;4.90;;;;;;;;;;5052476;28;20411;-75
2021/08/11 05:58:28;;;;;;;7.77;5.10;;;;;;;;;;5053097;28;20395;-75
2021/08/11 06:00:54;;;;;;;5.00;4.53;;;;;;;;;;5053632;28;20410;-77
2021/08/11 06:03:20;;;;;;;5.80;5.30;;;;;;;;;;5053128;28;20403;-76
2021/08/11 06:05:46;;;;;;;7.13;4.60;;;;;;;;;;5051998;28;20902;-77
2021/08/11 06:08:12;;;;;;;6.30;5.70;;;;;;;;;;5052357;28;20947;-78
2021/08/11 06:13:41;;;;;;;5.03;4.53;;;;;;;;;;5052938;28;20959;-76
2021/08/11 06:16:07;;;;;;;6.77;5.53;;;;;;;;;;5051843;28;20423;-76
2021/08/11 06:18:33;;;;;;;12.23;5.40;;;;;;;;;;5051553;28;20419;-76
2021/08/11 06:20:59;;;;;;;6.97;5.67;;;;;;;;;;5051242;28;20871;-77
2021/08/11 06:23:25;;;;;;;5.93;5.43;;;;;;;;;;5051285;28;20418;-76
2021/08/11 06:28:54;;;;;;;5.97;4.60;;;;;;;;;;5050966;28;20422;-75
2021/08/11 06:31:23;;;;;;;7.03;4.70;;;;;;;;;;5051267;28;20767;-76
2021/08/11 06:33:49;;;;;;;4.80;4.30;;;;;;;;;;5051600;28;20411;-75
2021/08/11 06:36:15;;;;;;;5.13;4.63;;;;;;;;;;5051197;28;20462;-75
2021/08/11 06:38:43;;;;;;;8.13;4.40;;;;;;;;;;5051106;28;20407;-76
2021/08/11 06:44:12;;;;;;;8.30;4.77;;;;;;;;;;5051211;28;20414;-77
2021/08/11 06:46:38;;;;;;;6.70;4.13;;;;;;;;;;5050756;28;20473;-74
2021/08/11 06:49:04;;;;;;;5.80;3.60;;;;;;;;;;5050861;28;20492;-76
2021/08/11 06:51:30;;;;;;;6.40;5.07;;;;;;;;;;5051329;28;20598;-77
2021/08/11 06:53:56;;;;;;;4.80;4.30;;;;;;;;;;5050554;28;20415;-73
2021/08/11 06:59:25;;;;;;;5.13;4.57;;;;;;;;;;5051069;28;20457;-74
2021/08/11 07:01:51;;;;;;;4.37;3.67;;;;;;;;;;5051097;28;20540;-76
2021/08/11 07:04:17;;;;;;;8.50;4.17;;;;;;;;;;5051642;28;20945;-75
2021/08/11 07:06:43;;;;;;;5.50;4.30;;;;;;;;;;5050722;28;20466;-73
2021/08/11 07:09:09;;;;;;;6.47;4.50;;;;;;;;;;5050397;28;20921;-74
2021/08/11 07:14:39;;;;;;;4.07;3.67;;;;;;;;;;5050749;28;20590;-75
2021/08/11 07:17:05;;;;;;;5.90;4.07;;;;;;;;;;5049700;28;20426;-76
2021/08/11 07:19:31;;;;;;;7.43;4.10;;;;;;;;;;5051226;28;20485;-77
2021/08/11 07:21:57;;;;;;;4.47;3.77;;;;;;;;;;5049880;28;20437;-76
2021/08/11 07:24:23;;;;;;;5.10;3.77;;;;;;;;;;5050646;28;20419;-76
2021/08/11 07:26:49;;;;;;;4.77;4.27;;;;;;;;;;5050522;28;20949;-77
2021/08/11 07:29:15;;;;;;;3.67;3.37;;;;;;;;;;5050631;28;20415;-75
2021/08/11 07:31:41;;;;;;;5.40;3.90;;;;;;;;;;5046733;28;20441;-76
2021/08/11 07:34:07;;;;;;;5.57;3.53;;;;;;;;;;5049045;28;20756;-74
2021/08/11 07:36:33;;;;;;;4.37;3.97;;;;;;;;;;5049058;28;20482;-75
2021/08/11 07:38:59;;;;;;;5.07;4.00;;;;;;;;;;5048650;28;20415;-78
2021/08/11 07:44:29;;;;;;;7.17;3.97;;;;;;;;;;5049514;28;20464;-77
2021/08/11 07:46:55;;;;;;;3.97;3.67;;;;;;;;;;5049290;28;20859;-77
2021/08/11 07:49:21;;;;;;;3.80;3.50;;;;;;;;;;5049205;28;20415;-78
2021/08/11 07:51:46;;;;;;;4.90;4.13;;;;;;;;;;5049599;28;20506;-73
2021/08/11 07:54:12;;;;;;;4.27;3.87;;;;;;;;;;5052800;28;20878;-79
2021/08/11 07:59:42;;;;;;;3.73;3.43;;;;;;;;;;5052777;28;20497;-78
2021/08/11 08:02:11;;;;;;;4.33;3.20;;;;;;;;;;5053505;28;20433;-78
2021/08/11 08:04:37;;;;;;;4.07;3.53;;;;;;;;;;5051896;28;20458;-79
2021/08/11 08:07:03;;;;;;;4.70;4.30;;;;;;;;;;5053302;28;20558;-78
2021/08/11 08:09:29;;;;;;;4.33;3.93;;;;;;;;;;5051639;28;20799;-77
2021/08/11 08:14:58;;;;;;;4.60;4.10;;;;;;;;;;5051286;28;20418;-77
2021/08/11 08:17:25;;;;;;;7.70;4.40;;;;;;;;;;5054301;28;20886;-79
2021/08/11 08:19:51;;;;;;;5.53;3.90;;;;;;;;;;5054766;28;20422;-79
2021/08/11 08:22:18;;;;;;;4.30;3.90;;;;;;;;;;5053805;28;20455;-80
2021/08/11 08:24:47;;;;;;;4.90;3.87;;;;;;;;;;5054208;28;20481;-79
2021/08/11 08:30:17;;;;;;;7.13;3.43;;;;;;;;;;5052570;28;20537;-78
2021/08/11 08:32:43;;;;;;;3.50;3.20;;;;;;;;;;5053974;28;20415;-78
2021/08/11 08:35:10;;;;;;;3.50;3.20;;;;;;;;;;5053569;28;20842;-77
2021/08/11 08:37:37;;;;;;;4.27;3.87;;;;;;;;;;5052381;28;20431;-78
2021/08/11 08:40:13;;;;;;;4.60;4.10;;;;;;;;;;5054695;28;20429;-78
2021/08/11 08:45:44;;;;;;;3.83;3.20;;;;;;;;;;5054707;28;20421;-79
2021/08/11 08:48:10;;;;;;;4.00;3.60;;;;;;;;;;5055049;28;20510;-80
2021/08/11 08:50:36;;;;;;;5.17;4.20;;;;;;;;;;5055077;28;20419;-77
2021/08/11 08:53:05;;;;;;;4.30;3.90;;;;;;;;;;5054491;28;20419;-78
2021/08/11 08:55:32;;;;;;;5.17;4.10;;;;;;;;;;5053609;28;20906;-77
2021/08/11 08:57:58;;;;;;;5.00;3.57;;;;;;;;;;5054639;28;20918;-79
2021/08/11 09:00:25;;;;;;;4.87;3.97;;;;;;;;;;5054686;28;20454;-78
2021/08/11 09:02:51;;;;;;;3.87;3.47;;;;;;;;;;5054581;28;20423;-78
2021/08/11 09:05:17;;;;;;;4.93;3.77;;;;;;;;;;5053898;28;20421;-79
2021/08/11 09:07:44;;;;;;;6.63;4.17;;;;;;;;;;5054107;28;20851;-79
2021/08/11 09:10:20;;;;;;;5.10;3.77;;;;;;;;;;5053822;28;20415;-79
2021/08/11 09:15:50;;;;;;;3.97;3.67;;;;;;;;;;5054252;28;20514;-79
2021/08/11 09:18:16;;;;;;;6.43;3.80;;;;;;;;;;5052220;28;20940;-79
2021/08/11 09:20:44;;;;;;;3.40;3.20;;;;;;;;;;5053613;28;20427;-76
2021/08/11 09:23:10;;;;;;;6.07;4.50;;;;;;;;;;5053450;28;20421;-78
2021/08/11 09:31:43;;;;;;;4.60;3.93;;;;;;;;;;5053263;28;20433;-78
2021/08/11 09:34:10;;;;;;;4.73;3.67;;;;;;;;;;5052063;28;20427;-78
2021/08/11 09:36:48;;;;;;;4.00;3.63;;;;;;;;;;5052972;28;20446;-78
2021/08/11 09:39:14;;;;;;;6.03;3.77;;;;;;;;;;5051330;28;20945;-78
2021/08/11 09:42:00;;;;;;;4.30;3.27;;;;;;;;;;5051954;28;20435;-76
2021/08/11 09:44:26;;;;;;;5.10;3.53;;;;;;;;;;5051386;28;20435;-77
2021/08/11 09:46:53;;;;;;;4.20;3.90;;;;;;;;;;5052929;28;20478;-78
2021/08/11 09:49:20;;;;;;;3.77;3.47;;;;;;;;;;5052894;28;20419;-78
2021/08/11 09:51:56;;;;;;;5.00;4.10;;;;;;;;;;5052905;28;20421;-77
2021/08/11 09:54:22;;;;;;;4.97;4.53;;;;;;;;;;5053099;28;20415;-78
2021/08/11 09:56:48;;;;;;;3.50;3.20;;;;;;;;;;5052802;28;20707;-77
2021/08/11 09:59:14;;;;;;;5.40;3.40;;;;;;;;;;5052925;28;20446;-75
2021/08/11 10:01:40;;;;;;;4.70;3.80;;;;;;;;;;5048256;28;20438;-77
2021/08/11 10:04:07;;;;;;;4.17;3.60;;;;;;;;;;5052503;28;20415;-78
2021/08/11 10:06:34;;;;;;;3.70;3.40;;;;;;;;;;5048264;28;21034;-76
2021/08/11 10:09:12;;;;;;;3.80;3.50;;;;;;;;;;5051081;28;20446;-78
2021/08/11 10:11:39;;;;;;;5.30;3.53;;;;;;;;;;5049669;28;20414;-79
2021/08/11 10:14:05;;;;;;;3.47;3.10;;;;;;;;;;5050761;28;20514;-76
2021/08/11 10:16:35;;;;;;;3.67;3.37;;;;;;;;;;5050316;28;20411;-79
2021/08/11 10:19:03;;;;;;;3.87;3.47;;;;;;;;;;5051064;28;20932;-77
2021/08/11 10:21:29;;;;;;;3.30;3.03;;;;;;;;;;5050254;28;20411;-77
2021/08/11 10:23:55;;;;;;;3.50;3.20;;;;;;;;;;5049375;28;20410;-75
2021/08/11 10:26:22;;;;;;;4.60;3.60;;;;;;;;;;5048634;28;20470;-78
2021/08/11 10:28:48;;;;;;;4.43;3.57;;;;;;;;;;5050848;28;20407;-77
2021/08/11 10:31:14;;;;;;;3.90;3.50;;;;;;;;;;5049638;28;20434;-77
2021/08/11 10:33:40;;;;;;;5.20;3.77;;;;;;;;;;5050737;28;20430;-76
2021/08/11 10:36:07;;;;;;;4.87;3.90;;;;;;;;;;5049225;28;20860;-77
2021/08/11 10:38:35;;;;;;;4.10;3.80;;;;;;;;;;5049376;28;20780;-77
2021/08/11 10:41:01;;;;;;;4.70;4.30;;;;;;;;;;5050802;28;20429;-76
2021/08/11 10:46:35;;;;;;;4.63;3.80;;;;;;;;;;5051499;28;20550;-77
2021/08/11 10:49:02;;;;;;;4.47;4.17;;;;;;;;;;5053971;28;20429;-77
2021/08/11 10:51:35;;;;;;;4.67;3.77;;;;;;;;;;5050645;28;20805;-77
2021/08/11 10:54:02;;;;;;;4.60;3.43;;;;;;;;;;5050304;28;20545;-76
2021/08/11 11:02:41;;;;;;;4.60;4.20;;;;;;;;;;5047888;28;20785;-77
2021/08/11 11:05:24;;;;;;;4.23;3.83;;;;;;;;;;5052254;28;20742;-77
2021/08/11 11:08:11;;;;;;;4.63;4.10;;;;;;;;;;5051854;28;20475;-78
2021/08/11 11:10:45;;;;;;;6.57;3.57;;;;;;;;;;5052382;28;20436;-76
2021/08/11 11:13:26;;;;;;;4.53;4.10;;;;;;;;;;5051981;28;20446;-77
2021/08/11 11:15:53;;;;;;;4.40;4.00;;;;;;;;;;5052115;28;20426;-77
2021/08/11 11:18:21;;;;;;;4.83;3.43;;;;;;;;;;5047722;28;20470;-76
2021/08/11 11:21:10;;;;;;;4.20;3.80;;;;;;;;;;5051964;28;20502;-76
2021/08/11 11:23:40;;;;;;;3.90;3.50;;;;;;;;;;5045172;28;20435;-77
2021/08/11 11:26:10;;;;;;;4.87;3.63;;;;;;;;;;5051863;28;20467;-77
2021/08/11 11:28:55;;;;;;;4.40;4.00;;;;;;;;;;5054818;28;20449;-78
2021/08/11 11:31:39;;;;;;;4.47;3.90;;;;;;;;;;5055830;28;20406;-77
2021/08/11 11:34:24;;;;;;;4.00;3.57;;;;;;;;;;5055742;28;20485;-78
2021/08/11 11:36:56;;;;;;;5.23;3.87;;;;;;;;;;5056154;28;20427;-77
2021/08/11 11:39:33;;;;;;;4.33;3.93;;;;;;;;;;5055239;28;20410;-76
2021/08/11 11:42:08;;;;;;;4.67;4.20;;;;;;;;;;5055663;28;20406;-78
2021/08/11 11:44:47;;;;;;;5.20;4.30;;;;;;;;;;5056030;28;20864;-78
2021/08/11 11:47:18;;;;;;;4.13;3.83;;;;;;;;;;5055780;28;20942;-77
2021/08/11 11:49:44;;;;;;;4.57;4.17;;;;;;;;;;5055634;28;20864;-77
2021/08/11 11:52:18;;;;;;;5.40;4.87;;;;;;;;;;5055625;28;20411;-75
2021/08/11 11:54:48;;;;;;;5.17;3.93;;;;;;;;;;5055546;28;20407;-78
2021/08/11 11:57:18;;;;;;;5.50;4.47;;;;;;;;;;5055317;28;20430;-78
2021/08/11 11:59:44;;;;;;;4.43;4.03;;;;;;;;;;5055411;28;20465;-77
2021/08/11 12:02:21;;;;;;;7.20;4.07;;;;;;;;;;5055249;28;20593;-79
2021/08/11 12:04:59;;;;;;;4.30;3.90;;;;;;;;;;5055692;28;20860;-77
2021/08/11 12:07:32;;;;;;;5.00;4.50;;;;;;;;;;5052032;28;20943;-77
2021/08/11 12:09:59;;;;;;;4.03;3.37;;;;;;;;;;5054016;28;20407;-77
2021/08/11 12:12:25;;;;;;;5.77;4.57;;;;;;;;;;5049902;28;20772;-77
2021/08/11 12:14:51;;;;;;;4.90;4.40;;;;;;;;;;5053906;28;20419;-78
2021/08/11 12:17:30;;;;;;;4.10;3.70;;;;;;;;;;5054280;28;20455;-77
2021/08/11 12:19:56;;;;;;;5.03;4.43;;;;;;;;;;5052542;28;20427;-78
2021/08/11 12:22:40;;;;;;;4.60;4.20;;;;;;;;;;5054026;28;20419;-77
2021/08/11 12:25:20;;;;;;;5.03;4.03;;;;;;;;;;5053591;28;20434;-77
2021/08/11 12:31:10;;;;;;;6.00;3.87;;;;;;;;;;5053562;28;20418;-77
2021/08/11 12:33:37;;;;;;;4.47;3.60;;;;;;;;;;5053537;28;20431;-77
2021/08/11 12:36:04;;;;;;;5.33;3.80;;;;;;;;;;5053509;28;21093;-73
2021/08/11 12:38:31;;;;;;;6.17;3.70;;;;;;;;;;5052665;28;20415;-76
2021/08/11 12:40:59;;;;;;;4.33;3.50;;;;;;;;;;5052612;28;20466;-77
2021/08/11 12:46:46;;;;;;;5.13;3.33;;;;;;;;;;5052828;28;20473;-78
2021/08/11 12:49:12;;;;;;;4.80;4.30;;;;;;;;;;5053168;28;20897;-77
2021/08/11 12:51:38;;;;;;;8.67;3.57;;;;;;;;;;5053170;28;20416;-76
2021/08/11 12:54:06;;;;;;;6.30;3.83;;;;;;;;;;5052101;28;20434;-75
2021/08/11 12:56:32;;;;;;;4.13;3.73;;;;;;;;;;5052584;28;20414;-77
2021/08/11 13:02:18;;;;;;;5.30;3.80;;;;;;;;;;5052906;28;20460;-77
2021/08/11 13:04:44;;;;;;;4.90;3.50;;;;;;;;;;5052940;28;20418;-77
2021/08/11 13:07:10;;;;;;;5.67;3.60;;;;;;;;;;5052894;28;20833;-78
2021/08/11 13:09:36;;;;;;;5.30;3.67;;;;;;;;;;5052574;28;20496;-76
2021/08/11 13:12:03;;;;;;;6.57;4.00;;;;;;;;;;5052957;28;20422;-77
2021/08/11 13:17:48;;;;;;;5.90;4.23;;;;;;;;;;5052705;28;20480;-77
2021/08/11 13:20:21;;;;;;;4.50;3.70;;;;;;;;;;5052739;28;20509;-76
2021/08/11 13:22:52;;;;;;;3.47;3.20;;;;;;;;;;5052206;28;20419;-78
2021/08/11 13:25:19;;;;;;;4.20;3.80;;;;;;;;;;5052469;28;20421;-78
2021/08/11 13:27:47;;;;;;;5.00;4.50;;;;;;;;;;5050802;28;20497;-76
2021/08/11 13:33:17;;;;;;;5.07;3.97;;;;;;;;;;5052109;28;20429;-77
2021/08/11 13:35:43;;;;;;;4.20;3.90;;;;;;;;;;5051961;28;20984;-74
2021/08/11 13:38:11;;;;;;;3.57;3.23;;;;;;;;;;5050693;28;20431;-77
2021/08/11 13:40:37;;;;;;;3.77;3.47;;;;;;;;;;5052291;28;20423;-73
2021/08/11 13:43:03;;;;;;;4.33;3.87;;;;;;;;;;5050827;28;20488;-78
2021/08/11 13:48:33;;;;;;;4.23;3.83;;;;;;;;;;5051802;28;20500;-77
2021/08/11 13:50:59;;;;;;;4.20;2.90;;;;;;;;;;5050565;28;20530;-79
2021/08/11 13:53:25;;;;;;;4.23;3.83;;;;;;;;;;5051846;28;20455;-74
2021/08/11 13:55:51;;;;;;;3.97;3.60;;;;;;;;;;5049599;28;20465;-76
2021/08/11 13:58:17;;;;;;;3.60;3.30;;;;;;;;;;5046988;28;20935;-74
2021/08/11 14:03:46;;;;;;;5.00;3.40;;;;;;;;;;5046768;28;20414;-76
2021/08/11 14:06:13;;;;;;;4.27;3.87;;;;;;;;;;5051073;28;20458;-74
2021/08/11 14:08:39;;;;;;;5.40;3.50;;;;;;;;;;5046322;28;20507;-77
2021/08/11 14:11:05;;;;;;;4.00;3.60;;;;;;;;;;5051320;28;20403;-77
2021/08/11 14:13:41;;;;;;;4.03;3.73;;;;;;;;;;5051192;28;20411;-78
2021/08/11 14:19:10;;;;;;;3.57;3.27;;;;;;;;;;5046611;28;20410;-76
2021/08/11 14:21:36;;;;;;;6.30;3.80;;;;;;;;;;5051140;28;20898;-77
2021/08/11 14:24:02;;;;;;;4.00;3.70;;;;;;;;;;5050351;28;20417;-77
2021/08/11 14:26:28;;;;;;;4.90;4.00;;;;;;;;;;5051110;28;20478;-78
2021/08/11 14:28:55;;;;;;;5.57;3.70;;;;;;;;;;5050730;28;20419;-77
2021/08/11 14:31:23;;;;;;;3.90;3.10;;;;;;;;;;5049708;28;20431;-77
2021/08/11 14:33:50;;;;;;;4.70;3.30;;;;;;;;;;5050356;28;20918;-77
2021/08/11 14:36:16;;;;;;;3.47;3.17;;;;;;;;;;5051202;28;20470;-79
2021/08/11 14:38:41;;;;;;;3.70;3.40;;;;;;;;;;5050888;28;20422;-77
2021/08/11 14:41:07;;;;;;;3.90;3.60;;;;;;;;;;5051145;28;20415;-78
2021/08/11 14:43:33;;;;;;;6.90;4.23;;;;;;;;;;5051123;28;20415;-73
2021/08/11 14:49:03;;;;;;;4.63;3.50;;;;;;;;;;5050972;28;21011;-78
2021/08/11 14:51:29;;;;;;;4.90;3.63;;;;;;;;;;5051212;28;20467;-78
2021/08/11 14:53:55;;;;;;;4.67;3.60;;;;;;;;;;5050069;28;20403;-80
2021/08/11 14:56:21;;;;;;;4.10;3.70;;;;;;;;;;5049626;28;20422;-77
2021/08/11 14:58:47;;;;;;;3.70;3.37;;;;;;;;;;5049948;28;20411;-77
2021/08/11 15:04:17;;;;;;;3.63;3.33;;;;;;;;;;5050766;28;20935;-77
2021/08/11 15:06:43;;;;;;;4.70;4.30;;;;;;;;;;5049685;28;20451;-77
2021/08/11 15:09:08;;;;;;;4.30;3.83;;;;;;;;;;5050609;28;20423;-77
2021/08/11 15:11:35;;;;;;;4.40;4.00;;;;;;;;;;5049602;28;20514;-78
2021/08/11 15:14:01;;;;;;;5.97;3.93;;;;;;;;;;5050883;28;20561;-76
2021/08/11 15:19:30;;;;;;;5.57;3.70;;;;;;;;;;5050624;28;20432;-76
2021/08/11 15:21:56;;;;;;;4.83;4.33;;;;;;;;;;5050368;28;20565;-77
2021/08/11 15:24:22;;;;;;;3.73;3.43;;;;;;;;;;5050272;28;20442;-77
2021/08/11 15:26:48;;;;;;;3.90;3.60;;;;;;;;;;5046074;28;20890;-74
2021/08/11 15:29:14;;;;;;;6.67;4.20;;;;;;;;;;5050570;28;20998;-77
2021/08/11 15:34:44;;;;;;;3.97;3.63;;;;;;;;;;5050169;28;20492;-78
2021/08/11 15:37:10;;;;;;;4.73;4.33;;;;;;;;;;5050513;28;20407;-78
2021/08/11 15:39:36;;;;;;;4.40;3.90;;;;;;;;;;5050428;28;20438;-77
2021/08/11 15:42:02;;;;;;;4.63;4.23;;;;;;;;;;5050381;28;20556;-78
2021/08/11 15:44:28;;;;;;;6.27;3.93;;;;;;;;;;5050436;28;20894;-77
2021/08/11 15:49:57;;;;;;;5.07;4.57;;;;;;;;;;5050428;28;20506;-76
2021/08/11 15:52:23;;;;;;;6.83;4.30;;;;;;;;;;5051175;28;20792;-77
2021/08/11 15:54:49;;;;;;;4.00;3.60;;;;;;;;;;5051379;28;20423;-78
2021/08/11 15:57:15;;;;;;;5.47;4.27;;;;;;;;;;5050140;28;20407;-78
2021/08/11 15:59:41;;;;;;;4.50;3.83;;;;;;;;;;5050399;28;20415;-79
2021/08/11 16:05:11;;;;;;;7.77;4.33;;;;;;;;;;5050449;28;20524;-80
2021/08/11 16:07:39;;;;;;;5.83;4.27;;;;;;;;;;5048735;28;20474;-81
2021/08/11 16:10:05;;;;;;;5.27;4.20;;;;;;;;;;5049333;28;20427;-78
2021/08/11 16:12:31;;;;;;;4.43;3.90;;;;;;;;;;5048964;28;20439;-77
2021/08/11 16:20:46;;;;;;;4.37;4.03;;;;;;;;;;5053869;28;20995;-79
2021/08/11 16:23:12;;;;;;;4.40;3.70;;;;;;;;;;5052104;28;20545;-78
2021/08/11 16:25:38;;;;;;;5.37;3.93;;;;;;;;;;5053325;28;20455;-79
2021/08/11 16:28:04;;;;;;;5.10;4.70;;;;;;;;;;5053522;28;20552;-75
2021/08/11 16:30:30;;;;;;;6.60;4.70;;;;;;;;;;5053611;28;20415;-78
2021/08/11 16:32:56;;;;;;;5.10;3.97;;;;;;;;;;5053293;28;20472;-79
2021/08/11 16:35:23;;;;;;;4.47;4.07;;;;;;;;;;5052949;28;20977;-78
2021/08/11 16:37:50;;;;;;;4.90;3.90;;;;;;;;;;5053164;28;20473;-76
2021/08/11 16:40:16;;;;;;;4.57;4.17;;;;;;;;;;5053397;28;20537;-75
2021/08/11 16:42:43;;;;;;;4.53;3.77;;;;;;;;;;5050575;28;20461;-74
2021/08/11 16:45:09;;;;;;;5.10;4.30;;;;;;;;;;5051865;28;20407;-77
2021/08/11 16:50:38;;;;;;;3.97;3.67;;;;;;;;;;5053088;28;20572;-75
2021/08/11 16:53:04;;;;;;;5.83;4.47;;;;;;;;;;5052870;28;20502;-76
2021/08/11 16:55:30;;;;;;;5.33;4.80;;;;;;;;;;5053147;28;20423;-78
2021/08/11 16:57:57;;;;;;;8.40;4.17;;;;;;;;;;5052958;28;20439;-76
2021/08/11 17:00:23;;;;;;;8.80;4.33;;;;;;;;;;5053050;28;20442;-78
2021/08/11 17:02:49;;;;;;;4.53;4.00;;;;;;;;;;5052960;28;20419;-78
2021/08/11 17:05:15;;;;;;;4.90;3.37;;;;;;;;;;5051619;28;20495;-78
2021/08/11 17:07:41;;;;;;;6.20;3.73;;;;;;;;;;5052778;28;20478;-79
2021/08/11 17:10:08;;;;;;;6.97;4.60;;;;;;;;;;5052434;28;20446;-79
2021/08/11 17:12:34;;;;;;;4.30;4.00;;;;;;;;;;5052570;28;20908;-76
2021/08/11 17:15:00;;;;;;;4.47;3.97;;;;;;;;;;5053797;28;20502;-77
2021/08/11 17:20:30;;;;;;;5.20;4.23;;;;;;;;;;5054076;28;20414;-78